Hovedside
METAR-TAF:

METAR-TAF

Lufthavner :

Bergen lufthavn. Flesland

Bergen, Norge

breddegrad: 60-17N, lengdegrad: 005-14E, høyde over havet: 5 m

Gjeldene værobservasjon

Denne rapporten ble laget for 23 minutter siden, klokken 15:20 UTC
Vind 6 kt fra Vest-sørvest, skiftende mellom Sør-sørvest og Vest
Temperatur 15°C
Luftfuktighet 36%
Trykk 1036 hPa
Sikt 10 km eller mer
ingen skyer under 1500 m og ingen bygeskyer

METAR: ENBR 181520Z 24006KT 210V270 CAVOK 15/M00 Q1036 NOSIG RMK WIND 1200FT 17005KT

Tid: 17:43 (15:43 UTC)

Varsel

Varsel gyldig fra 18. klokken 12 UTC til 19. klokken 12 UTC
Vind 10 kt fra Sørvest
Sikt 10 km eller mer
ingen skyer under 1500 m og ingen bygeskyer
Blir
fra 18. klokken 17 UTC til 18. klokken 19 UTC
Vind 5 kt fra skiftende retning

TAF: ENBR 1812/1912 22010KT CAVOK BECMG 1817/1819 VRB05KT

Værobservasjoner og værvarsel for over 4000 flyplasser (METAR- og TAF-rapporter).

Tilgjengelige stasjoner er representert av de røde og gule prikkene på kartet.

Hold musepekeren over prikken for å se navnet på stasjonen.

Klikk så for å se værobservasjoner og -varsler.

For å forandre kartet kan du klikke på den grønne knappen med svart kryss for å zoome inn, på den grønne knappen med strek for å zoome ut, eller på de grønne pilene for å se tilstøtende kart.


METAR-TAF: